createdAt,value
2022-12-19T00:01:02.930Z,98547.44
2022-12-19T00:11:05.349Z,98522.00
2022-12-19T00:21:08.794Z,98517.03
2022-12-19T00:31:16.572Z,98509.53
2022-12-19T00:41:27.777Z,98489.56
2022-12-19T00:51:32.206Z,98473.88
2022-12-19T01:01:37.753Z,98458.50
2022-12-19T01:12:00.432Z,98449.22
2022-12-19T01:22:02.701Z,98435.22
2022-12-19T01:32:05.487Z,98430.84
2022-12-19T01:42:16.145Z,98416.91
2022-12-19T01:52:23.846Z,98391.69
2022-12-19T02:02:31.719Z,98362.38
2022-12-19T02:12:37.959Z,98339.28
2022-12-19T02:23:01.236Z,98337.47
2022-12-19T02:33:11.606Z,98315.81
2022-12-19T02:43:15.951Z,98306.38
2022-12-19T02:53:23.576Z,98284.72
2022-12-19T03:03:59.673Z,98275.75
2022-12-19T03:14:18.601Z,98293.13
2022-12-19T03:24:20.942Z,98297.72
2022-12-19T03:34:38.424Z,98303.00
2022-12-19T03:44:42.527Z,98301.31
2022-12-19T03:55:10.337Z,98313.88
2022-12-19T04:05:15.335Z,98292.91
2022-12-19T04:15:17.878Z,98276.63
2022-12-19T04:25:29.368Z,98263.09
2022-12-19T04:35:32.321Z,98261.56
2022-12-19T04:45:34.639Z,98265.03
2022-12-19T04:55:38.160Z,98256.53
2022-12-19T05:05:40.350Z,98262.75
2022-12-19T05:15:42.919Z,98265.03
2022-12-19T05:25:45.225Z,98266.09
2022-12-19T05:35:48.081Z,98264.16
2022-12-19T05:45:50.340Z,98254.38
2022-12-19T05:55:52.583Z,98259.88
2022-12-19T06:05:54.809Z,98276.94
2022-12-19T06:16:05.834Z,98268.94
2022-12-19T06:26:15.539Z,98269.47
2022-12-19T06:36:24.185Z,98268.00
2022-12-19T06:46:26.594Z,98276.56
2022-12-19T06:56:34.996Z,98278.84
2022-12-19T07:06:37.195Z,98281.72
2022-12-19T07:16:41.504Z,98313.56
2022-12-19T07:26:44.918Z,98299.06
2022-12-19T07:36:47.177Z,98293.78
2022-12-19T07:46:49.370Z,98284.44
2022-12-19T07:56:52.220Z,98315.09
2022-12-19T08:06:54.464Z,98295.47
2022-12-19T08:17:19.733Z,98279.41
2022-12-19T08:27:19.032Z,98266.53
2022-12-19T08:37:21.931Z,98254.19
2022-12-19T08:47:24.133Z,98263.31
2022-12-19T08:57:26.487Z,98275.78
2022-12-19T09:07:29.325Z,98252.03
2022-12-19T09:17:31.585Z,98235.81
2022-12-19T09:28:01.206Z,98208.38
2022-12-19T09:38:00.081Z,98202.81
2022-12-19T09:48:03.444Z,98185.97
2022-12-19T09:58:30.359Z,98184.38
2022-12-19T10:08:38.798Z,98185.09
2022-12-19T10:19:05.777Z,98184.22
2022-12-19T10:29:42.720Z,98167.47
2022-12-19T10:39:56.836Z,98167.00
2022-12-19T10:50:02.668Z,98181.19
2022-12-19T11:00:20.197Z,98149.09
2022-12-19T11:11:22.928Z,98145.28
2022-12-19T11:29:36.496Z,98131.06
2022-12-19T11:42:23.615Z,98091.81
2022-12-19T11:53:03.451Z,98117.84
2022-12-19T12:03:15.016Z,98124.06
2022-12-19T12:19:47.116Z,98104.03
2022-12-19T12:31:38.588Z,98094.50
2022-12-19T12:37:08.259Z,98066.25
2022-12-19T12:45:40.136Z,98058.41
2022-12-19T12:55:43.525Z,98046.41
2022-12-19T13:06:04.429Z,98029.28
2022-12-19T13:16:44.659Z,98031.97
2022-12-19T13:26:50.180Z,98027.84
2022-12-19T13:39:47.686Z,98022.88
2022-12-19T13:47:26.188Z,98008.41
2022-12-19T13:57:32.007Z,97992.75
2022-12-19T14:07:42.494Z,98005.56
2022-12-19T14:17:49.269Z,98008.03
2022-12-19T14:28:26.361Z,98011.31
2022-12-19T14:39:26.925Z,97994.19
2022-12-19T14:54:05.222Z,97990.50
2022-12-19T14:59:27.553Z,97992.94
2022-12-19T15:11:00.949Z,97987.75
2022-12-19T15:19:52.401Z,97994.78
2022-12-19T15:29:54.660Z,97988.56
2022-12-19T15:39:56.852Z,97982.38
2022-12-19T15:50:02.853Z,97981.13
2022-12-19T16:00:12.893Z,97971.00
2022-12-19T16:10:16.000Z,97961.50
2022-12-19T16:20:24.404Z,97969.94
2022-12-19T16:30:32.481Z,97956.53
2022-12-19T16:40:34.792Z,97939.03
2022-12-19T16:50:36.999Z,97915.72
2022-12-19T17:00:39.331Z,97908.84
2022-12-19T17:10:45.406Z,97929.44
2022-12-19T17:20:47.729Z,97919.19
2022-12-19T17:30:53.418Z,97918.59
2022-12-19T17:40:56.374Z,97917.41
2022-12-19T17:50:59.335Z,97922.13
2022-12-19T18:01:01.760Z,97908.34
2022-12-19T18:11:07.734Z,97919.66
2022-12-19T18:21:15.204Z,97915.16
2022-12-19T18:31:26.094Z,97911.66
2022-12-19T18:41:28.388Z,97911.03
2022-12-19T18:51:30.669Z,97911.84
2022-12-19T19:01:33.076Z,97914.94
2022-12-19T19:11:36.614Z,97904.63
2022-12-19T19:21:40.395Z,97893.69
2022-12-19T19:31:46.119Z,97888.53
2022-12-19T19:41:48.795Z,97871.84
2022-12-19T19:51:54.348Z,97896.59
2022-12-19T20:02:01.309Z,97901.56
2022-12-19T20:12:03.800Z,97891.66
2022-12-19T20:22:05.985Z,97893.09
2022-12-19T20:32:08.372Z,97878.91
2022-12-19T20:42:10.832Z,97868.59
2022-12-19T20:52:13.021Z,97868.41
2022-12-19T21:02:15.268Z,97877.44
2022-12-19T21:12:17.620Z,97901.97
2022-12-19T21:22:20.079Z,97909.00
2022-12-19T21:40:11.114Z,97866.75
2022-12-19T21:50:15.268Z,97880.34
2022-12-19T22:00:17.867Z,97847.75
2022-12-19T22:10:20.308Z,97833.72
2022-12-19T22:20:22.487Z,97844.22
2022-12-19T22:30:24.676Z,97847.53
2022-12-19T22:40:26.895Z,97819.50
2022-12-19T22:50:29.252Z,97822.53
2022-12-19T23:00:31.446Z,97817.97
2022-12-19T23:10:33.658Z,97766.59
2022-12-19T23:20:35.960Z,97785.47
2022-12-19T23:30:38.165Z,97794.13
2022-12-19T23:40:40.337Z,97778.06
2022-12-19T23:50:42.710Z,97791.34
